Time;durP1;ratioP1;P1;durP2;ratioP2;P2;SDS_P1;SDS_P2;PMS_P1;PMS_P2;Temp;Humidity;BMP_temperature;BMP_pressure;BME280_temperature;BME280_humidity;BME280_pressure;Samples;Min_cycle;Max_cycle;Signal;HPM_P1;HPM_P2
2022/04/19 00:00:38;;;;;;;0.50;0.50;;;;;;;;;;1842287;77;26678;-52
2022/04/19 00:03:06;;;;;;;0.50;0.50;;;;;;;;;;1858198;77;26242;-47
2022/04/19 00:05:33;;;;;;;0.53;0.53;;;;;;;;;;1857913;76;27425;-47
2022/04/19 00:08:01;;;;;;;1.25;0.45;;;;;;;;;;1854825;77;26304;-51
2022/04/19 00:10:28;;;;;;;0.80;0.70;;;;;;;;;;1857781;77;26308;-49
2022/04/19 00:12:56;;;;;;;0.60;0.60;;;;;;;;;;1858114;77;26256;-46
2022/04/19 00:15:27;;;;;;;0.60;0.50;;;;;;;;;;1849654;76;26738;-45
2022/04/19 00:17:54;;;;;;;0.40;0.40;;;;;;;;;;1861887;76;26282;-48
2022/04/19 00:20:23;;;;;;;0.53;0.53;;;;;;;;;;1857896;76;26728;-48
2022/04/19 00:22:50;;;;;;;0.95;0.60;;;;;;;;;;1855730;77;25869;-49
2022/04/19 00:25:18;;;;;;;0.42;0.42;;;;;;;;;;1846806;77;26262;-47
2022/04/19 00:27:45;;;;;;;0.47;0.47;;;;;;;;;;1850085;77;26265;-48
2022/04/19 00:30:13;;;;;;;0.62;0.50;;;;;;;;;;1859869;76;26721;-51
2022/04/19 00:32:40;;;;;;;0.85;0.65;;;;;;;;;;1853451;77;26290;-47
2022/04/19 00:35:09;;;;;;;0.62;0.60;;;;;;;;;;1848197;77;26648;-51
2022/04/19 00:37:37;;;;;;;0.50;0.50;;;;;;;;;;1848150;77;26820;-49
2022/04/19 00:40:05;;;;;;;0.50;0.50;;;;;;;;;;1857812;76;26305;-47
2022/04/19 00:42:33;;;;;;;0.95;0.57;;;;;;;;;;1853022;76;26680;-46
2022/04/19 00:45:05;;;;;;;0.40;0.40;;;;;;;;;;1844926;76;26206;-49
2022/04/19 00:47:32;;;;;;;0.50;0.30;;;;;;;;;;1838312;77;26745;-51
2022/04/19 00:50:03;;;;;;;0.50;0.50;;;;;;;;;;1834870;77;26261;-48
2022/04/19 00:52:31;;;;;;;1.60;0.50;;;;;;;;;;1850017;76;26320;-48
2022/04/19 00:54:59;;;;;;;1.65;0.50;;;;;;;;;;1842484;76;26126;-51
2022/04/19 00:57:27;;;;;;;0.47;0.40;;;;;;;;;;1845123;77;26321;-48
2022/04/19 00:59:56;;;;;;;0.40;0.40;;;;;;;;;;1847898;77;26289;-51
2022/04/19 01:02:24;;;;;;;0.50;0.50;;;;;;;;;;1847731;76;26335;-48
2022/04/19 01:04:52;;;;;;;0.30;0.30;;;;;;;;;;1848309;77;26323;-48
2022/04/19 01:07:20;;;;;;;0.60;0.60;;;;;;;;;;1848486;77;26238;-49
2022/04/19 01:09:48;;;;;;;0.28;0.28;;;;;;;;;;1848454;77;26289;-50
2022/04/19 01:15:05;;;;;;;0.45;0.45;;;;;;;;;;1848142;76;26781;-48
2022/04/19 01:17:34;;;;;;;0.30;0.30;;;;;;;;;;1848383;77;26278;-48
2022/04/19 01:20:03;;;;;;;1.30;0.40;;;;;;;;;;1846203;77;26262;-49
2022/04/19 01:22:37;;;;;;;0.65;0.47;;;;;;;;;;1820517;77;27369;-51
2022/04/19 01:25:05;;;;;;;0.65;0.50;;;;;;;;;;1852521;76;26554;-48
2022/04/19 01:27:32;;;;;;;0.40;0.40;;;;;;;;;;1844814;77;26300;-46
2022/04/19 01:30:02;;;;;;;0.40;0.40;;;;;;;;;;1848295;77;26277;-46
2022/04/19 01:32:30;;;;;;;0.40;0.40;;;;;;;;;;1849827;77;26698;-44
2022/04/19 01:35:07;;;;;;;0.40;0.40;;;;;;;;;;1855163;77;26245;-47
2022/04/19 01:37:35;;;;;;;0.62;0.62;;;;;;;;;;1857750;76;26257;-46
2022/04/19 01:40:18;;;;;;;0.53;0.37;;;;;;;;;;1844136;76;26748;-48
2022/04/19 01:42:48;;;;;;;0.88;0.50;;;;;;;;;;1857566;77;26291;-47
2022/04/19 01:45:16;;;;;;;0.40;0.40;;;;;;;;;;1851024;76;26291;-45
2022/04/19 01:47:43;;;;;;;1.65;0.30;;;;;;;;;;1843799;76;26253;-48
2022/04/19 01:50:12;;;;;;;0.68;0.35;;;;;;;;;;1857534;76;26708;-45
2022/04/19 01:52:40;;;;;;;0.30;0.30;;;;;;;;;;1848994;77;26841;-51
2022/04/19 01:55:08;;;;;;;0.65;0.45;;;;;;;;;;1852798;77;26316;-47
2022/04/19 01:57:36;;;;;;;1.10;0.37;;;;;;;;;;1854102;77;26366;-52
2022/04/19 02:00:04;;;;;;;0.57;0.50;;;;;;;;;;1857514;76;26297;-50
2022/04/19 02:02:32;;;;;;;0.33;0.30;;;;;;;;;;1857207;76;26317;-45
2022/04/19 02:04:59;;;;;;;1.67;0.30;;;;;;;;;;1856712;77;26764;-50
2022/04/19 02:07:27;;;;;;;0.40;0.40;;;;;;;;;;1857411;77;26351;-48
2022/04/19 02:09:54;;;;;;;0.50;0.50;;;;;;;;;;1857334;76;26362;-46
2022/04/19 02:12:23;;;;;;;0.40;0.40;;;;;;;;;;1856489;77;26331;-48
2022/04/19 02:14:50;;;;;;;0.30;0.30;;;;;;;;;;1851312;76;26350;-51
2022/04/19 02:17:23;;;;;;;0.35;0.35;;;;;;;;;;1871380;76;26231;-50
2022/04/19 02:19:52;;;;;;;0.40;0.40;;;;;;;;;;1846051;77;26277;-48
2022/04/19 02:22:22;;;;;;;0.35;0.35;;;;;;;;;;1844704;77;26269;-47
2022/04/19 02:24:48;;;;;;;0.30;0.30;;;;;;;;;;1836474;77;26640;-49
2022/04/19 02:27:15;;;;;;;0.28;0.20;;;;;;;;;;1855862;76;26261;-50
2022/04/19 02:29:42;;;;;;;0.30;0.30;;;;;;;;;;1856556;76;26253;-49
2022/04/19 02:32:10;;;;;;;0.30;0.30;;;;;;;;;;1848890;76;26619;-49
2022/04/19 02:34:37;;;;;;;0.30;0.30;;;;;;;;;;1849708;77;26367;-51
2022/04/19 02:37:04;;;;;;;0.40;0.40;;;;;;;;;;1847974;76;26257;-48
2022/04/19 02:39:31;;;;;;;1.00;0.35;;;;;;;;;;1848420;76;26343;-47
2022/04/19 02:41:59;;;;;;;0.30;0.30;;;;;;;;;;1848330;77;26262;-47
2022/04/19 02:44:27;;;;;;;0.30;0.30;;;;;;;;;;1847767;77;26265;-51
2022/04/19 02:46:55;;;;;;;1.65;0.42;;;;;;;;;;1836718;77;26221;-46
2022/04/19 02:49:22;;;;;;;0.30;0.30;;;;;;;;;;1848182;76;26343;-50
2022/04/19 02:51:49;;;;;;;0.85;0.30;;;;;;;;;;1848218;77;26319;-46
2022/04/19 02:54:17;;;;;;;0.30;0.30;;;;;;;;;;1847977;77;26808;-49
2022/04/19 02:56:44;;;;;;;0.20;0.20;;;;;;;;;;1830711;77;26232;-51
2022/04/19 02:59:11;;;;;;;0.40;0.40;;;;;;;;;;1825282;76;26269;-47
2022/04/19 03:01:39;;;;;;;0.30;0.30;;;;;;;;;;1860870;76;26257;-48
2022/04/19 03:04:06;;;;;;;0.30;0.30;;;;;;;;;;1848058;77;26305;-50
2022/04/19 03:06:33;;;;;;;0.20;0.20;;;;;;;;;;1848378;77;26297;-51
2022/04/19 03:09:01;;;;;;;0.47;0.20;;;;;;;;;;1861560;76;26332;-51
2022/04/19 03:11:29;;;;;;;0.40;0.40;;;;;;;;;;1851415;76;26277;-47
2022/04/19 03:13:56;;;;;;;0.30;0.30;;;;;;;;;;1847573;77;26262;-46
2022/04/19 03:16:24;;;;;;;0.40;0.40;;;;;;;;;;1839345;76;26729;-51
2022/04/19 03:18:51;;;;;;;0.30;0.30;;;;;;;;;;1840058;77;26266;-49
2022/04/19 03:21:18;;;;;;;0.30;0.30;;;;;;;;;;1830123;77;26353;-48
2022/04/19 03:29:16;;;;;;;0.20;0.20;;;;;;;;;;1842484;77;26281;-52
2022/04/19 03:31:43;;;;;;;0.28;0.28;;;;;;;;;;1844352;77;26262;-50
2022/04/19 03:34:11;;;;;;;0.40;0.40;;;;;;;;;;1847583;76;26289;-48
2022/04/19 03:36:38;;;;;;;0.30;0.30;;;;;;;;;;1849065;76;26261;-45
2022/04/19 03:39:05;;;;;;;0.30;0.30;;;;;;;;;;1847826;77;26343;-48
2022/04/19 03:41:33;;;;;;;0.20;0.20;;;;;;;;;;1847770;77;26209;-45
2022/04/19 03:44:00;;;;;;;0.40;0.40;;;;;;;;;;1847766;77;26262;-51
2022/04/19 03:46:27;;;;;;;0.95;0.40;;;;;;;;;;1840640;76;26300;-49
2022/04/19 03:48:55;;;;;;;0.33;0.33;;;;;;;;;;1848643;77;26276;-48
2022/04/19 03:51:22;;;;;;;0.30;0.30;;;;;;;;;;1848707;77;27065;-50
2022/04/19 03:53:49;;;;;;;1.47;0.37;;;;;;;;;;1843947;77;26843;-52
2022/04/19 03:56:17;;;;;;;1.10;0.37;;;;;;;;;;1849063;76;26336;-48
2022/04/19 03:58:44;;;;;;;0.75;0.30;;;;;;;;;;1847730;77;26245;-47
2022/04/19 04:01:12;;;;;;;0.40;0.30;;;;;;;;;;1845821;77;26265;-48
2022/04/19 04:03:40;;;;;;;0.90;0.40;;;;;;;;;;1846125;76;26777;-45
2022/04/19 04:06:07;;;;;;;0.30;0.30;;;;;;;;;;1843312;77;26355;-48
2022/04/19 04:08:34;;;;;;;0.15;0.15;;;;;;;;;;1843146;76;26268;-51
2022/04/19 04:11:02;;;;;;;0.62;0.50;;;;;;;;;;1846707;77;26617;-49
2022/04/19 04:13:29;;;;;;;0.30;0.30;;;;;;;;;;1846504;76;26242;-49
2022/04/19 04:15:56;;;;;;;0.42;0.42;;;;;;;;;;1842140;77;26326;-50
2022/04/19 04:18:23;;;;;;;0.40;0.30;;;;;;;;;;1843133;76;26301;-52
2022/04/19 04:20:51;;;;;;;0.40;0.40;;;;;;;;;;1847729;77;26328;-50
2022/04/19 04:23:18;;;;;;;1.17;0.35;;;;;;;;;;1847887;77;26800;-50
2022/04/19 04:25:46;;;;;;;2.75;0.65;;;;;;;;;;1845767;77;26733;-51
2022/04/19 04:28:13;;;;;;;0.75;0.30;;;;;;;;;;1847640;76;26685;-45
2022/04/19 04:30:41;;;;;;;0.75;0.42;;;;;;;;;;1844078;76;26409;-48
2022/04/19 04:33:08;;;;;;;1.20;0.50;;;;;;;;;;1847435;77;26272;-50
2022/04/19 04:35:35;;;;;;;0.88;0.30;;;;;;;;;;1854747;77;26269;-47
2022/04/19 04:38:02;;;;;;;0.65;0.35;;;;;;;;;;1856616;76;26285;-52
2022/04/19 04:40:30;;;;;;;0.30;0.30;;;;;;;;;;1856076;76;26295;-53
2022/04/19 04:42:57;;;;;;;0.55;0.40;;;;;;;;;;1856633;76;26658;-49
2022/04/19 04:45:25;;;;;;;1.37;0.50;;;;;;;;;;1852802;77;26834;-46
2022/04/19 04:50:38;;;;;;;1.27;0.50;;;;;;;;;;1854271;77;26775;-52
2022/04/19 04:53:05;;;;;;;0.50;0.45;;;;;;;;;;1859646;76;26737;-49
2022/04/19 04:55:32;;;;;;;0.70;0.40;;;;;;;;;;1856479;76;26245;-50
2022/04/19 04:58:01;;;;;;;3.27;0.57;;;;;;;;;;1856734;77;26343;-51
2022/04/19 05:00:29;;;;;;;0.55;0.55;;;;;;;;;;1850737;77;26325;-51
2022/04/19 05:02:56;;;;;;;0.55;0.55;;;;;;;;;;1852103;77;26327;-49
2022/04/19 05:05:24;;;;;;;0.50;0.50;;;;;;;;;;1856636;76;26301;-50
2022/04/19 05:07:51;;;;;;;1.15;0.60;;;;;;;;;;1857280;77;26249;-48
2022/04/19 05:10:18;;;;;;;0.55;0.53;;;;;;;;;;1855601;77;26765;-52
2022/04/19 05:12:46;;;;;;;1.20;0.60;;;;;;;;;;1852926;77;26740;-45
2022/04/19 05:15:13;;;;;;;0.50;0.50;;;;;;;;;;1856854;76;26339;-48
2022/04/19 05:17:40;;;;;;;1.80;0.60;;;;;;;;;;1854695;77;26289;-51
2022/04/19 05:20:09;;;;;;;0.50;0.50;;;;;;;;;;1849574;76;26339;-50
2022/04/19 05:22:37;;;;;;;1.65;0.80;;;;;;;;;;1852085;77;26269;-47
2022/04/19 05:25:05;;;;;;;0.62;0.62;;;;;;;;;;1853681;77;26744;-44
2022/04/19 05:27:32;;;;;;;1.00;0.80;;;;;;;;;;1854847;76;26233;-46
2022/04/19 05:29:59;;;;;;;0.90;0.75;;;;;;;;;;1850541;77;26285;-46
2022/04/19 05:32:27;;;;;;;1.45;0.70;;;;;;;;;;1851089;77;26764;-51
2022/04/19 05:34:54;;;;;;;0.78;0.70;;;;;;;;;;1849569;77;26297;-45
2022/04/19 05:37:22;;;;;;;4.97;0.75;;;;;;;;;;1844116;76;26206;-46
2022/04/19 05:39:49;;;;;;;1.05;0.70;;;;;;;;;;1850423;76;26268;-48
2022/04/19 05:42:16;;;;;;;1.05;0.78;;;;;;;;;;1844527;77;26705;-51
2022/04/19 05:44:44;;;;;;;0.80;0.80;;;;;;;;;;1846960;77;26575;-51
2022/04/19 05:47:11;;;;;;;2.80;0.80;;;;;;;;;;1845306;77;26419;-52
2022/04/19 05:49:38;;;;;;;2.30;0.70;;;;;;;;;;1844835;76;26386;-51
2022/04/19 05:52:06;;;;;;;1.80;0.80;;;;;;;;;;1845015;77;26281;-48
2022/04/19 05:54:34;;;;;;;2.27;0.80;;;;;;;;;;1843777;77;26339;-47
2022/04/19 05:57:01;;;;;;;0.80;0.80;;;;;;;;;;1842266;77;26273;-50
2022/04/19 05:59:28;;;;;;;0.50;0.50;;;;;;;;;;1845862;76;26261;-49
2022/04/19 06:04:53;;;;;;;2.58;0.60;;;;;;;;;;1845416;77;26462;-48
2022/04/19 06:07:21;;;;;;;0.82;0.70;;;;;;;;;;1844625;77;26340;-48
2022/04/19 06:09:49;;;;;;;0.72;0.70;;;;;;;;;;1844911;77;26322;-48
2022/04/19 06:12:16;;;;;;;2.70;0.80;;;;;;;;;;1841749;76;26269;-55
2022/04/19 06:14:44;;;;;;;1.45;0.60;;;;;;;;;;1842109;76;26255;-48
2022/04/19 06:17:16;;;;;;;1.00;0.70;;;;;;;;;;1839983;77;26321;-52
2022/04/19 06:19:44;;;;;;;0.78;0.78;;;;;;;;;;1839369;77;26373;-45
2022/04/19 06:22:11;;;;;;;0.78;0.60;;;;;;;;;;1842844;77;26359;-47
2022/04/19 06:24:39;;;;;;;0.80;0.80;;;;;;;;;;1844428;76;26263;-53
2022/04/19 06:27:08;;;;;;;1.05;0.70;;;;;;;;;;1843062;76;26311;-54
2022/04/19 06:29:35;;;;;;;1.60;0.70;;;;;;;;;;1845157;76;26273;-48
2022/04/19 06:32:02;;;;;;;0.60;0.60;;;;;;;;;;1844315;76;26327;-50
2022/04/19 06:34:30;;;;;;;3.22;0.70;;;;;;;;;;1845036;76;26387;-47
2022/04/19 06:36:57;;;;;;;0.50;0.50;;;;;;;;;;1856144;76;26725;-44
2022/04/19 06:39:24;;;;;;;1.20;0.70;;;;;;;;;;1854285;76;26900;-46
2022/04/19 06:41:53;;;;;;;1.80;0.60;;;;;;;;;;1858998;76;26284;-53
2022/04/19 06:44:21;;;;;;;2.27;0.70;;;;;;;;;;1857801;76;26389;-56
2022/04/19 06:46:49;;;;;;;0.60;0.60;;;;;;;;;;1845985;76;26213;-54
2022/04/19 06:49:17;;;;;;;1.12;0.50;;;;;;;;;;1854810;76;26265;-56
2022/04/19 06:51:44;;;;;;;2.08;0.60;;;;;;;;;;1862989;76;26698;-55
2022/04/19 06:54:12;;;;;;;0.45;0.45;;;;;;;;;;1854947;76;26732;-54
2022/04/19 06:56:39;;;;;;;1.82;0.50;;;;;;;;;;1853379;76;26259;-55
2022/04/19 06:59:08;;;;;;;0.60;0.60;;;;;;;;;;1856736;76;27388;-56
2022/04/19 07:01:38;;;;;;;0.53;0.53;;;;;;;;;;1853841;76;27026;-58
2022/04/19 07:04:05;;;;;;;0.68;0.68;;;;;;;;;;1856395;76;26321;-57
2022/04/19 07:06:32;;;;;;;1.10;0.37;;;;;;;;;;1849892;76;26691;-54
2022/04/19 07:08:59;;;;;;;0.30;0.30;;;;;;;;;;1855180;76;26779;-57
2022/04/19 07:11:26;;;;;;;1.35;0.50;;;;;;;;;;1850039;76;26725;-53
2022/04/19 07:13:54;;;;;;;0.50;0.50;;;;;;;;;;1854141;77;26722;-59
2022/04/19 07:16:21;;;;;;;0.45;0.45;;;;;;;;;;1851032;77;26811;-59
2022/04/19 07:18:49;;;;;;;0.50;0.50;;;;;;;;;;1855355;76;26342;-52
2022/04/19 07:26:47;;;;;;;0.60;0.60;;;;;;;;;;1853484;76;26343;-50
2022/04/19 07:29:18;;;;;;;0.98;0.60;;;;;;;;;;1854285;76;26269;-52
2022/04/19 07:31:46;;;;;;;0.60;0.60;;;;;;;;;;1856249;76;26374;-51
2022/04/19 07:34:14;;;;;;;3.30;0.50;;;;;;;;;;1846995;76;26275;-50
2022/04/19 07:36:41;;;;;;;5.10;0.60;;;;;;;;;;1851567;76;26351;-54
2022/04/19 07:39:13;;;;;;;3.40;0.70;;;;;;;;;;1853234;76;26641;-54
2022/04/19 07:41:43;;;;;;;1.85;0.50;;;;;;;;;;1861082;76;26257;-48
2022/04/19 07:44:09;;;;;;;0.68;0.40;;;;;;;;;;1883683;76;26373;-50
2022/04/19 07:46:37;;;;;;;1.32;0.50;;;;;;;;;;1875114;76;26762;-55
2022/04/19 07:49:05;;;;;;;1.30;0.55;;;;;;;;;;1844225;76;26257;-52
2022/04/19 07:51:32;;;;;;;1.37;0.70;;;;;;;;;;1854706;76;26271;-53
2022/04/19 07:53:59;;;;;;;3.30;0.62;;;;;;;;;;1859448;76;26300;-50
2022/04/19 07:56:26;;;;;;;0.50;0.50;;;;;;;;;;1867145;76;26339;-59
2022/04/19 07:58:54;;;;;;;0.42;0.42;;;;;;;;;;1857878;76;26316;-56
2022/04/19 08:01:23;;;;;;;0.50;0.50;;;;;;;;;;1857796;76;26265;-54
2022/04/19 08:03:50;;;;;;;1.92;0.40;;;;;;;;;;1858647;76;26315;-55
2022/04/19 08:06:17;;;;;;;1.75;0.50;;;;;;;;;;1863974;76;26324;-54
2022/04/19 08:08:45;;;;;;;0.40;0.40;;;;;;;;;;1852047;76;26327;-51
2022/04/19 08:11:12;;;;;;;1.70;0.60;;;;;;;;;;1843927;77;26292;-78
2022/04/19 08:13:39;;;;;;;1.85;0.53;;;;;;;;;;1852898;76;26547;-49
2022/04/19 08:16:08;;;;;;;1.75;0.50;;;;;;;;;;1856185;77;26323;-54
2022/04/19 08:18:35;;;;;;;0.37;0.37;;;;;;;;;;1852085;76;26877;-52
2022/04/19 08:21:03;;;;;;;0.47;0.47;;;;;;;;;;1857961;76;26705;-55
2022/04/19 08:23:30;;;;;;;0.40;0.40;;;;;;;;;;1863261;76;26269;-50
2022/04/19 08:25:58;;;;;;;0.72;0.50;;;;;;;;;;1856735;77;26316;-48
2022/04/19 08:28:25;;;;;;;0.30;0.30;;;;;;;;;;1859046;76;26320;-56
2022/04/19 08:30:52;;;;;;;0.35;0.30;;;;;;;;;;1862897;76;26309;-56
2022/04/19 08:33:20;;;;;;;0.53;0.50;;;;;;;;;;1863324;76;26682;-54
2022/04/19 08:35:47;;;;;;;0.47;0.42;;;;;;;;;;1856863;76;26319;-51
2022/04/19 08:38:14;;;;;;;2.60;0.50;;;;;;;;;;1854567;76;26253;-48
2022/04/19 08:40:42;;;;;;;0.40;0.40;;;;;;;;;;1856479;76;26214;-52
2022/04/19 08:43:11;;;;;;;0.37;0.37;;;;;;;;;;1852583;76;26245;-52
2022/04/19 08:45:38;;;;;;;0.90;0.40;;;;;;;;;;1855883;76;26822;-51
2022/04/19 08:48:09;;;;;;;0.30;0.30;;;;;;;;;;1856033;76;26280;-59
2022/04/19 08:50:38;;;;;;;0.50;0.50;;;;;;;;;;1856018;76;26261;-53
2022/04/19 08:58:38;;;;;;;0.55;0.30;;;;;;;;;;1856728;76;26337;-59
2022/04/19 09:01:06;;;;;;;2.12;0.60;;;;;;;;;;1856875;76;26619;-48
2022/04/19 09:03:33;;;;;;;0.40;0.40;;;;;;;;;;1860036;76;26265;-52
2022/04/19 09:06:03;;;;;;;0.30;0.30;;;;;;;;;;1854628;76;26582;-57
2022/04/19 09:08:30;;;;;;;0.70;0.57;;;;;;;;;;1858987;76;26693;-55
2022/04/19 09:11:05;;;;;;;0.40;0.40;;;;;;;;;;1856144;76;26871;-58
2022/04/19 09:13:32;;;;;;;0.42;0.42;;;;;;;;;;1859100;76;26343;-55
2022/04/19 09:16:06;;;;;;;0.40;0.40;;;;;;;;;;1855741;76;26632;-52
2022/04/19 09:18:35;;;;;;;0.50;0.50;;;;;;;;;;1854052;77;26324;-45
2022/04/19 09:21:06;;;;;;;0.55;0.55;;;;;;;;;;1856762;76;26308;-50
2022/04/19 09:23:34;;;;;;;0.40;0.40;;;;;;;;;;1856157;77;26253;-54
2022/04/19 09:26:05;;;;;;;0.30;0.30;;;;;;;;;;1857421;76;26335;-54
2022/04/19 09:28:34;;;;;;;1.20;0.50;;;;;;;;;;1853168;76;26298;-46
2022/04/19 09:31:01;;;;;;;0.50;0.50;;;;;;;;;;1857493;76;26355;-48
2022/04/19 09:33:30;;;;;;;0.60;0.57;;;;;;;;;;1862854;76;26277;-47
2022/04/19 09:36:07;;;;;;;0.40;0.40;;;;;;;;;;1857484;76;26249;-54
2022/04/19 09:38:40;;;;;;;0.30;0.30;;;;;;;;;;1851041;76;26285;-54
2022/04/19 09:41:09;;;;;;;0.40;0.40;;;;;;;;;;1847686;76;26812;-53
2022/04/19 09:43:37;;;;;;;0.40;0.40;;;;;;;;;;1854430;76;26276;-50
2022/04/19 09:46:05;;;;;;;0.40;0.40;;;;;;;;;;1852621;76;26251;-50
2022/04/19 09:48:33;;;;;;;0.42;0.42;;;;;;;;;;1856702;76;26249;-55
2022/04/19 09:51:05;;;;;;;0.40;0.40;;;;;;;;;;1855491;76;26701;-50
2022/04/19 09:53:34;;;;;;;0.30;0.30;;;;;;;;;;1856225;76;26393;-52
2022/04/19 09:56:02;;;;;;;0.40;0.40;;;;;;;;;;1856564;76;26436;-45
2022/04/19 09:58:30;;;;;;;0.30;0.30;;;;;;;;;;1856077;76;26239;-47
2022/04/19 10:00:57;;;;;;;0.20;0.20;;;;;;;;;;1858921;76;26355;-53
2022/04/19 10:08:57;;;;;;;0.40;0.40;;;;;;;;;;1802346;78;26338;-44
2022/04/19 10:11:26;;;;;;;0.42;0.42;;;;;;;;;;1808800;78;26400;-56
2022/04/19 10:13:54;;;;;;;0.40;0.40;;;;;;;;;;1808968;78;26259;-55
2022/04/19 10:16:21;;;;;;;0.30;0.30;;;;;;;;;;1806474;78;26261;-55
2022/04/19 10:18:48;;;;;;;0.30;0.30;;;;;;;;;;1811858;78;26341;-43
2022/04/19 10:21:21;;;;;;;0.40;0.40;;;;;;;;;;1805344;78;26326;-47
2022/04/19 10:23:48;;;;;;;0.30;0.30;;;;;;;;;;1807651;78;26287;-43
2022/04/19 10:26:17;;;;;;;0.30;0.30;;;;;;;;;;1806384;78;26857;-43
2022/04/19 10:28:46;;;;;;;0.35;0.35;;;;;;;;;;1802781;78;26698;-48
2022/04/19 10:31:13;;;;;;;0.30;0.30;;;;;;;;;;1823872;77;26353;-49
2022/04/19 10:33:44;;;;;;;0.42;0.42;;;;;;;;;;1822871;77;26644;-48
2022/04/19 10:36:12;;;;;;;0.40;0.40;;;;;;;;;;1814843;77;26752;-47
2022/04/19 10:38:40;;;;;;;1.07;0.20;;;;;;;;;;1821524;77;26330;-54
2022/04/19 10:41:07;;;;;;;0.40;0.30;;;;;;;;;;1815664;77;26363;-47
2022/04/19 10:43:35;;;;;;;0.40;0.40;;;;;;;;;;1815232;77;26341;-44
2022/04/19 10:46:21;;;;;;;1.65;0.40;;;;;;;;;;1813113;77;26298;-46
2022/04/19 10:49:07;;;;;;;1.57;0.35;;;;;;;;;;1815135;77;26352;-44
2022/04/19 10:51:34;;;;;;;0.30;0.30;;;;;;;;;;1820046;77;26364;-46
2022/04/19 10:54:01;;;;;;;0.20;0.20;;;;;;;;;;1821405;77;26360;-44
2022/04/19 10:56:29;;;;;;;0.80;0.45;;;;;;;;;;1820846;77;26222;-45
2022/04/19 10:58:56;;;;;;;0.40;0.40;;;;;;;;;;1823695;77;26694;-47
2022/04/19 11:01:29;;;;;;;2.15;0.42;;;;;;;;;;1809567;77;26290;-54
2022/04/19 11:03:57;;;;;;;0.35;0.30;;;;;;;;;;1827355;77;26278;-47
2022/04/19 11:06:31;;;;;;;0.30;0.30;;;;;;;;;;1823434;77;26669;-44
2022/04/19 11:09:09;;;;;;;0.50;0.50;;;;;;;;;;1821833;77;26311;-47
2022/04/19 11:11:46;;;;;;;2.77;0.37;;;;;;;;;;1814634;77;26856;-50
2022/04/19 11:14:17;;;;;;;0.50;0.50;;;;;;;;;;1820461;77;26833;-46
2022/04/19 11:16:48;;;;;;;0.65;0.60;;;;;;;;;;1821687;77;27179;-51
2022/04/19 11:19:17;;;;;;;0.50;0.50;;;;;;;;;;1819020;77;26313;-48
2022/04/19 11:21:56;;;;;;;2.02;0.57;;;;;;;;;;1819968;77;26681;-49
2022/04/19 11:24:41;;;;;;;1.40;0.50;;;;;;;;;;1816919;77;26301;-51
2022/04/19 11:27:09;;;;;;;1.45;0.40;;;;;;;;;;1811419;78;26321;-54
2022/04/19 11:29:49;;;;;;;2.80;0.65;;;;;;;;;;1822109;77;26879;-49
2022/04/19 11:32:20;;;;;;;1.67;0.60;;;;;;;;;;1819293;77;26301;-57
2022/04/19 11:34:57;;;;;;;0.90;0.90;;;;;;;;;;1827290;77;26303;-52
2022/04/19 11:37:25;;;;;;;1.50;0.80;;;;;;;;;;1812073;77;26254;-46
2022/04/19 11:48:10;;;;;;;2.40;1.10;;;;;;;;;;1788624;78;26456;-55
2022/04/19 11:50:37;;;;;;;3.25;1.00;;;;;;;;;;1803250;78;26738;-47
2022/04/19 11:53:04;;;;;;;0.80;0.80;;;;;;;;;;1781365;79;26340;-50
2022/04/19 11:55:32;;;;;;;0.93;0.93;;;;;;;;;;1788121;78;26259;-46
2022/04/19 11:58:06;;;;;;;0.88;0.88;;;;;;;;;;1776559;79;26295;-47
2022/04/19 12:00:34;;;;;;;1.55;0.90;;;;;;;;;;1782867;78;27808;-44
2022/04/19 12:03:04;;;;;;;1.27;1.00;;;;;;;;;;1787882;79;26271;-45
2022/04/19 12:05:31;;;;;;;0.90;0.90;;;;;;;;;;1801557;78;26295;-49
2022/04/19 12:07:59;;;;;;;0.90;0.90;;;;;;;;;;1790042;79;26305;-47
2022/04/19 12:10:28;;;;;;;2.87;1.10;;;;;;;;;;1766732;80;26403;-47
2022/04/19 12:12:55;;;;;;;0.88;0.88;;;;;;;;;;1783954;79;26353;-50
2022/04/19 12:15:43;;;;;;;0.90;0.90;;;;;;;;;;1791644;79;26295;-52
2022/04/19 12:18:10;;;;;;;1.65;0.93;;;;;;;;;;1788215;78;26354;-47
2022/04/19 12:20:44;;;;;;;2.52;0.95;;;;;;;;;;1785905;79;26443;-46
2022/04/19 12:23:18;;;;;;;1.30;0.88;;;;;;;;;;1791616;78;27412;-50
2022/04/19 12:26:01;;;;;;;2.67;1.00;;;;;;;;;;1786907;79;26730;-44
2022/04/19 12:28:43;;;;;;;3.50;0.90;;;;;;;;;;1783955;78;26653;-52
2022/04/19 12:31:28;;;;;;;2.62;0.93;;;;;;;;;;1789638;79;26403;-49
2022/04/19 12:33:55;;;;;;;3.12;0.98;;;;;;;;;;1790149;79;26228;-47
2022/04/19 12:36:25;;;;;;;0.90;0.90;;;;;;;;;;1780161;79;26782;-46
2022/04/19 12:38:53;;;;;;;0.80;0.80;;;;;;;;;;1797652;77;26369;-50
2022/04/19 12:41:20;;;;;;;0.80;0.80;;;;;;;;;;1811977;77;26377;-48
2022/04/19 12:43:48;;;;;;;0.78;0.78;;;;;;;;;;1824366;77;26362;-46
2022/04/19 12:46:16;;;;;;;1.15;0.85;;;;;;;;;;1823661;77;26754;-52
2022/04/19 12:48:45;;;;;;;1.12;0.82;;;;;;;;;;1815555;77;26367;-47
2022/04/19 12:51:12;;;;;;;0.78;0.78;;;;;;;;;;1809069;77;26318;-53
2022/04/19 12:53:40;;;;;;;1.10;0.90;;;;;;;;;;1812506;77;26356;-51
2022/04/19 12:59:11;;;;;;;0.65;0.65;;;;;;;;;;1812883;77;26352;-47
2022/04/19 13:01:39;;;;;;;0.62;0.62;;;;;;;;;;1809382;77;25747;-49
2022/04/19 13:04:07;;;;;;;1.37;0.62;;;;;;;;;;1822572;77;26345;-53
2022/04/19 13:12:18;;;;;;;0.60;0.60;;;;;;;;;;1818708;77;26381;-47
2022/04/19 13:14:45;;;;;;;0.60;0.60;;;;;;;;;;1814064;77;26325;-49
2022/04/19 13:17:15;;;;;;;0.62;0.62;;;;;;;;;;1816322;78;26294;-45
2022/04/19 13:19:43;;;;;;;0.70;0.70;;;;;;;;;;1815435;77;26393;-45
2022/04/19 13:22:11;;;;;;;0.70;0.70;;;;;;;;;;1821986;77;26859;-48
2022/04/19 13:24:39;;;;;;;0.47;0.47;;;;;;;;;;1816860;77;26314;-47
2022/04/19 13:27:07;;;;;;;0.85;0.80;;;;;;;;;;1815863;77;26281;-45
2022/04/19 13:29:34;;;;;;;0.60;0.60;;;;;;;;;;1822739;77;26308;-50
2022/04/19 13:32:02;;;;;;;0.65;0.65;;;;;;;;;;1816046;77;26293;-45
2022/04/19 13:34:30;;;;;;;0.50;0.50;;;;;;;;;;1820407;77;26290;-46
2022/04/19 13:36:58;;;;;;;0.60;0.60;;;;;;;;;;1818664;77;26258;-46
2022/04/19 13:39:26;;;;;;;0.70;0.70;;;;;;;;;;1808829;78;26373;-48
2022/04/19 13:41:54;;;;;;;0.60;0.60;;;;;;;;;;1791213;79;26290;-47
2022/04/19 13:44:21;;;;;;;0.72;0.72;;;;;;;;;;1791690;79;27275;-48
2022/04/19 13:46:49;;;;;;;0.40;0.40;;;;;;;;;;1796777;78;26238;-46
2022/04/19 13:49:18;;;;;;;0.60;0.60;;;;;;;;;;1798003;79;26387;-48
2022/04/19 13:51:45;;;;;;;0.50;0.50;;;;;;;;;;1791762;79;26334;-49
2022/04/19 13:54:14;;;;;;;0.60;0.60;;;;;;;;;;1792415;78;26287;-48
2022/04/19 13:56:43;;;;;;;0.70;0.70;;;;;;;;;;1803905;79;26291;-51
2022/04/19 13:59:12;;;;;;;0.53;0.53;;;;;;;;;;1773756;78;26341;-50
2022/04/19 14:01:39;;;;;;;0.68;0.68;;;;;;;;;;1790969;78;26391;-47
2022/04/19 14:04:08;;;;;;;0.60;0.60;;;;;;;;;;1789503;80;26333;-48
2022/04/19 14:06:39;;;;;;;0.60;0.60;;;;;;;;;;1790111;78;26287;-47
2022/04/19 14:09:07;;;;;;;0.55;0.55;;;;;;;;;;1777558;79;26894;-50
2022/04/19 14:11:35;;;;;;;0.57;0.57;;;;;;;;;;1792676;78;26270;-45
2022/04/19 14:14:04;;;;;;;0.68;0.68;;;;;;;;;;1790850;80;26368;-47
2022/04/19 14:16:32;;;;;;;0.40;0.40;;;;;;;;;;1783490;78;26759;-50
2022/04/19 14:19:00;;;;;;;0.60;0.60;;;;;;;;;;1792272;78;26421;-45
2022/04/19 14:21:27;;;;;;;0.60;0.60;;;;;;;;;;1795064;78;26760;-49
2022/04/19 14:23:55;;;;;;;0.42;0.42;;;;;;;;;;1785456;78;26270;-46
2022/04/19 14:26:22;;;;;;;0.60;0.60;;;;;;;;;;1790634;79;26294;-50
2022/04/19 14:34:19;;;;;;;0.40;0.40;;;;;;;;;;1784454;79;27294;-52
2022/04/19 14:36:47;;;;;;;1.62;0.50;;;;;;;;;;1791557;78;26361;-47
2022/04/19 14:39:14;;;;;;;0.50;0.50;;;;;;;;;;1795535;78;26302;-48
2022/04/19 14:41:42;;;;;;;0.50;0.50;;;;;;;;;;1816373;77;26364;-50
2022/04/19 14:44:09;;;;;;;0.50;0.50;;;;;;;;;;1820226;77;26345;-50
2022/04/19 14:46:37;;;;;;;0.50;0.50;;;;;;;;;;1819374;77;26290;-48
2022/04/19 14:49:04;;;;;;;0.50;0.50;;;;;;;;;;1824026;77;26251;-53
2022/04/19 14:54:17;;;;;;;0.50;0.50;;;;;;;;;;1817510;77;26381;-52
2022/04/19 14:56:44;;;;;;;0.45;0.45;;;;;;;;;;1817975;77;26796;-51
2022/04/19 14:59:12;;;;;;;0.40;0.40;;;;;;;;;;1814841;77;26317;-47
2022/04/19 15:01:40;;;;;;;0.40;0.40;;;;;;;;;;1819661;77;26692;-50
2022/04/19 15:04:07;;;;;;;0.47;0.47;;;;;;;;;;1816771;77;26355;-54
2022/04/19 15:06:34;;;;;;;0.50;0.50;;;;;;;;;;1817852;77;26274;-45
2022/04/19 15:09:01;;;;;;;0.50;0.50;;;;;;;;;;1816020;77;26508;-50
2022/04/19 15:11:29;;;;;;;0.72;0.60;;;;;;;;;;1816697;77;26780;-49
2022/04/19 15:13:57;;;;;;;0.70;0.70;;;;;;;;;;1819745;77;26289;-53
2022/04/19 15:16:24;;;;;;;0.50;0.50;;;;;;;;;;1811581;77;26292;-49
2022/04/19 15:18:52;;;;;;;0.40;0.40;;;;;;;;;;1816234;77;26352;-49
2022/04/19 15:21:19;;;;;;;1.02;0.60;;;;;;;;;;1821807;77;26348;-52
2022/04/19 15:23:47;;;;;;;0.40;0.40;;;;;;;;;;1820075;77;26332;-44
2022/04/19 15:26:14;;;;;;;0.40;0.40;;;;;;;;;;1812671;77;26430;-44
2022/04/19 15:28:42;;;;;;;0.45;0.45;;;;;;;;;;1810233;77;26267;-49
2022/04/19 15:31:09;;;;;;;0.57;0.57;;;;;;;;;;1817871;77;26274;-44
2022/04/19 15:33:36;;;;;;;0.50;0.50;;;;;;;;;;1815954;77;26274;-50
2022/04/19 15:36:04;;;;;;;0.40;0.40;;;;;;;;;;1817509;77;26286;-49
2022/04/19 15:38:32;;;;;;;0.50;0.50;;;;;;;;;;1820734;77;26301;-48
2022/04/19 15:41:00;;;;;;;0.60;0.60;;;;;;;;;;1815864;77;26849;-51
2022/04/19 15:43:27;;;;;;;0.47;0.47;;;;;;;;;;1825710;77;26321;-49
2022/04/19 15:45:54;;;;;;;0.50;0.50;;;;;;;;;;1809434;77;26298;-45